createdAt,value
2019-02-14T00:04:25.570Z,0.20
2019-02-14T00:10:21.442Z,0.17
2019-02-14T00:16:47.260Z,0.12
2019-02-14T00:26:47.843Z,0.02
2019-02-14T00:33:30.192Z,0.00
2019-02-14T00:40:08.147Z,-0.04
2019-02-14T00:46:51.125Z,-0.09
2019-02-14T00:53:28.052Z,-0.09
2019-02-14T01:00:06.021Z,-0.21
2019-02-14T01:06:43.928Z,-0.25
2019-02-14T01:13:22.884Z,-0.25
2019-02-14T01:20:01.826Z,-0.26
2019-02-14T01:30:05.723Z,-0.37
2019-02-14T01:36:30.620Z,-0.38
2019-02-14T01:42:59.475Z,-0.44
2019-02-14T01:49:26.137Z,-0.46
2019-02-14T01:55:56.905Z,-0.57
2019-02-14T02:02:32.999Z,-0.54
2019-02-14T02:08:27.602Z,-0.57
2019-02-14T02:14:53.422Z,-0.57
2019-02-14T02:21:28.942Z,-0.55
2019-02-14T02:28:03.240Z,-0.65
2019-02-14T02:34:04.303Z,-0.68
2019-02-14T02:40:54.883Z,-0.72
2019-02-14T02:47:43.933Z,-0.71
2019-02-14T02:54:15.355Z,-0.76
2019-02-14T03:00:42.651Z,-0.84
2019-02-14T03:07:02.411Z,-0.80
2019-02-14T03:13:39.047Z,-0.81
2019-02-14T03:20:06.945Z,-0.95
2019-02-14T03:26:37.033Z,-0.90
2019-02-14T03:32:59.467Z,-0.93
2019-02-14T03:39:25.645Z,-0.99
2019-02-14T03:45:53.492Z,-1.02
2019-02-14T03:52:21.109Z,-1.03
2019-02-14T03:58:51.182Z,-1.02
2019-02-14T04:05:19.022Z,-0.99
2019-02-14T04:11:43.835Z,-1.07
2019-02-14T04:17:59.551Z,-1.10
2019-02-14T04:23:50.024Z,-1.13
2019-02-14T04:33:50.972Z,-1.06
2019-02-14T04:40:33.435Z,-1.09
2019-02-14T04:47:08.616Z,-1.19
2019-02-14T04:53:34.464Z,-1.32
2019-02-14T05:00:00.514Z,-1.39
2019-02-14T05:06:27.343Z,-1.32
2019-02-14T05:12:53.161Z,-1.32
2019-02-14T05:19:21.005Z,-1.39
2019-02-14T05:25:48.628Z,-1.35
2019-02-14T05:36:04.943Z,-1.47
2019-02-14T05:42:41.871Z,-1.42
2019-02-14T05:49:20.822Z,-1.54
2019-02-14T05:55:59.769Z,-1.45
2019-02-14T06:02:40.505Z,-1.45
2019-02-14T06:09:24.379Z,-1.49
2019-02-14T06:16:06.620Z,-1.56
2019-02-14T06:22:44.661Z,-1.58
2019-02-14T06:29:21.251Z,-1.59
2019-02-14T06:39:24.192Z,-1.60
2019-02-14T06:45:52.404Z,-1.67
2019-02-14T06:52:19.983Z,-1.75
2019-02-14T06:58:45.836Z,-1.76
2019-02-14T07:05:14.917Z,-1.78
2019-02-14T07:11:05.179Z,-1.76
2019-02-14T07:17:32.212Z,-1.76
2019-02-14T07:23:58.033Z,-1.81
2019-02-14T07:30:27.641Z,-1.80
2019-02-14T07:40:47.025Z,-1.76
2019-02-14T07:47:26.741Z,-1.68
2019-02-14T07:54:05.697Z,-1.76
2019-02-14T08:00:51.618Z,-1.72
2019-02-14T08:07:35.842Z,-1.71
2019-02-14T08:14:17.772Z,-1.59
2019-02-14T08:20:54.640Z,-1.52
2019-02-14T08:27:34.409Z,-1.48
2019-02-14T08:34:00.258Z,-1.43
2019-02-14T08:43:52.148Z,-1.33
2019-02-14T08:50:31.097Z,-1.27
2019-02-14T08:57:10.406Z,-1.22
2019-02-14T09:03:53.394Z,-1.12
2019-02-14T09:10:36.162Z,-1.03
2019-02-14T09:17:15.120Z,-0.86
2019-02-14T09:23:52.264Z,-0.73
2019-02-14T09:30:36.263Z,-0.61
2019-02-14T09:37:14.859Z,-0.55
2019-02-14T09:47:29.292Z,-0.34
2019-02-14T09:53:56.755Z,-0.22
2019-02-14T10:00:22.607Z,-0.13
2019-02-14T10:06:48.775Z,-0.02
2019-02-14T10:12:37.852Z,0.14
2019-02-14T10:19:04.050Z,0.30
2019-02-14T10:25:29.874Z,0.41
2019-02-14T10:31:57.713Z,0.55
2019-02-14T10:38:23.535Z,0.69
2019-02-14T10:48:37.607Z,1.03
2019-02-14T10:55:01.415Z,1.18
2019-02-14T11:01:29.000Z,1.35
2019-02-14T11:07:57.726Z,1.47
2019-02-14T11:14:29.270Z,1.64
2019-02-14T11:20:51.765Z,1.81
2019-02-14T11:27:17.589Z,2.05
2019-02-14T11:33:49.306Z,2.23
2019-02-14T11:40:16.292Z,2.51
2019-02-14T11:50:32.395Z,2.80
2019-02-14T11:57:10.978Z,3.03
2019-02-14T12:03:47.070Z,3.22
2019-02-14T12:10:23.977Z,3.35
2019-02-14T12:17:02.937Z,3.55
2019-02-14T12:23:41.894Z,3.79
2019-02-14T12:30:23.718Z,4.00
2019-02-14T12:37:06.054Z,4.26
2019-02-14T12:43:43.996Z,4.53
2019-02-14T12:46:54.881Z,4.70
2019-02-14T12:52:58.285Z,4.89
2019-02-14T12:59:38.065Z,5.05
2019-02-14T13:06:17.019Z,5.22
2019-02-14T13:12:20.754Z,5.47
2019-02-14T13:18:59.709Z,5.76
2019-02-14T13:25:38.671Z,6.10
2019-02-14T13:32:17.622Z,6.24
2019-02-14T13:38:56.577Z,6.33
2019-02-14T13:45:29.394Z,6.43
2019-02-14T13:55:19.232Z,6.63
2019-02-14T14:02:04.331Z,6.73
2019-02-14T14:08:43.281Z,6.83
2019-02-14T14:15:09.957Z,7.08
2019-02-14T14:21:36.132Z,7.22
2019-02-14T14:27:59.605Z,7.36
2019-02-14T14:34:25.753Z,7.51
2019-02-14T14:40:52.593Z,7.73
2019-02-14T14:47:26.494Z,8.37
2019-02-14T14:57:29.114Z,8.58
2019-02-14T15:03:55.276Z,8.55
2019-02-14T15:10:26.948Z,8.51
2019-02-14T15:16:59.081Z,8.52
2019-02-14T15:23:25.611Z,8.58
2019-02-14T15:29:51.465Z,8.59
2019-02-14T15:36:18.515Z,8.47
2019-02-14T15:42:43.984Z,8.42
2019-02-14T15:49:10.153Z,8.29
2019-02-14T15:59:12.770Z,8.02
2019-02-14T16:05:54.096Z,7.93
2019-02-14T16:11:57.761Z,7.78
2019-02-14T16:18:34.420Z,7.62
2019-02-14T16:25:13.376Z,7.48
2019-02-14T16:31:43.325Z,7.29
2019-02-14T16:38:11.776Z,7.12
2019-02-14T16:44:37.888Z,6.91
2019-02-14T16:51:04.937Z,6.72
2019-02-14T17:01:20.615Z,6.49
2019-02-14T17:08:00.793Z,6.07
2019-02-14T17:14:05.615Z,5.90
2019-02-14T17:20:44.299Z,5.76
2019-02-14T17:27:25.305Z,5.62
2019-02-14T17:34:04.264Z,5.51
2019-02-14T17:40:46.151Z,5.33
2019-02-14T17:47:22.180Z,5.16
2019-02-14T17:54:01.952Z,5.00
2019-02-14T18:03:27.936Z,4.68
2019-02-14T18:09:53.752Z,4.62
2019-02-14T18:16:19.329Z,4.54
2019-02-14T18:22:45.178Z,4.21
2019-02-14T18:29:08.980Z,4.23
2019-02-14T18:35:35.648Z,4.15
2019-02-14T18:42:01.843Z,3.97
2019-02-14T18:48:27.667Z,3.87
2019-02-14T18:54:57.294Z,3.75
2019-02-14T19:00:49.035Z,3.60
2019-02-14T19:07:14.585Z,3.39
2019-02-14T19:13:45.695Z,3.47
2019-02-14T19:20:13.535Z,3.38
2019-02-14T19:26:39.354Z,3.25
2019-02-14T19:33:06.994Z,3.21
2019-02-14T19:39:35.038Z,3.09
2019-02-14T19:45:58.690Z,2.94
2019-02-14T19:52:23.648Z,2.89
2019-02-14T19:58:51.497Z,2.80
2019-02-14T20:05:06.004Z,2.69
2019-02-14T20:11:36.759Z,2.47
2019-02-14T20:18:04.903Z,2.47
2019-02-14T20:24:30.519Z,2.42
2019-02-14T20:30:57.587Z,2.38
2019-02-14T20:37:26.403Z,2.25
2019-02-14T20:43:55.028Z,2.23
2019-02-14T20:49:50.572Z,2.12
2019-02-14T20:56:17.607Z,2.12
2019-02-14T21:06:34.723Z,1.91
2019-02-14T21:13:13.664Z,1.90
2019-02-14T21:19:55.294Z,1.77
2019-02-14T21:26:44.499Z,1.71
2019-02-14T21:33:11.190Z,1.67
2019-02-14T21:39:37.358Z,1.59
2019-02-14T21:46:03.187Z,1.56
2019-02-14T21:51:56.752Z,1.43
2019-02-14T21:58:28.348Z,1.45
2019-02-14T22:08:44.643Z,1.42
2019-02-14T22:15:23.615Z,1.39
2019-02-14T22:22:02.310Z,1.28
2019-02-14T22:28:43.514Z,1.20
2019-02-14T22:35:22.279Z,1.19
2019-02-14T22:41:27.081Z,1.18
2019-02-14T22:48:04.002Z,1.10
2019-02-14T22:54:30.836Z,1.11
2019-02-14T23:01:08.537Z,1.04
2019-02-14T23:11:24.876Z,0.93
2019-02-14T23:18:03.827Z,0.90
2019-02-14T23:24:29.645Z,0.85
2019-02-14T23:30:58.493Z,0.81
2019-02-14T23:37:26.333Z,0.80
2019-02-14T23:43:17.448Z,0.79
2019-02-14T23:49:43.633Z,0.75
2019-02-14T23:56:08.720Z,0.75
